sensor_id;sensor_type;location;lat;lon;timestamp;P1;durP1;ratioP1;P2;durP2;ratioP2
12625;SDS011;6378;42.684;23.372;2022-12-18T00:01:42;13.77;;;9.40;;
12625;SDS011;6378;42.684;23.372;2022-12-18T00:04:21;13.87;;;9.33;;
12625;SDS011;6378;42.684;23.372;2022-12-18T00:06:47;12.00;;;8.43;;
12625;SDS011;6378;42.684;23.372;2022-12-18T00:09:13;11.27;;;8.37;;
12625;SDS011;6378;42.684;23.372;2022-12-18T00:11:38;11.43;;;8.43;;
12625;SDS011;6378;42.684;23.372;2022-12-18T00:14:04;12.40;;;8.40;;
12625;SDS011;6378;42.684;23.372;2022-12-18T00:16:29;12.93;;;8.60;;
12625;SDS011;6378;42.684;23.372;2022-12-18T00:18:57;11.53;;;8.30;;
12625;SDS011;6378;42.684;23.372;2022-12-18T00:21:24;12.13;;;9.37;;
12625;SDS011;6378;42.684;23.372;2022-12-18T00:23:51;13.27;;;8.67;;
12625;SDS011;6378;42.684;23.372;2022-12-18T00:26:18;11.77;;;8.80;;
12625;SDS011;6378;42.684;23.372;2022-12-18T00:28:48;11.53;;;8.73;;
12625;SDS011;6378;42.684;23.372;2022-12-18T00:31:15;13.60;;;8.70;;
12625;SDS011;6378;42.684;23.372;2022-12-18T00:33:43;11.23;;;8.50;;
12625;SDS011;6378;42.684;23.372;2022-12-18T00:36:10;12.80;;;8.60;;
12625;SDS011;6378;42.684;23.372;2022-12-18T00:38:41;14.97;;;9.60;;
12625;SDS011;6378;42.684;23.372;2022-12-18T00:41:09;13.53;;;9.77;;
12625;SDS011;6378;42.684;23.372;2022-12-18T00:43:35;12.80;;;9.13;;
12625;SDS011;6378;42.684;23.372;2022-12-18T00:46:01;13.27;;;8.63;;
12625;SDS011;6378;42.684;23.372;2022-12-18T00:48:27;13.97;;;9.77;;
12625;SDS011;6378;42.684;23.372;2022-12-18T00:50:52;10.93;;;8.30;;
12625;SDS011;6378;42.684;23.372;2022-12-18T00:53:18;13.53;;;9.07;;
12625;SDS011;6378;42.684;23.372;2022-12-18T00:55:44;14.73;;;9.63;;
12625;SDS011;6378;42.684;23.372;2022-12-18T00:58:10;13.40;;;8.87;;
12625;SDS011;6378;42.684;23.372;2022-12-18T01:00:37;12.97;;;9.17;;
12625;SDS011;6378;42.684;23.372;2022-12-18T01:03:03;12.20;;;8.50;;
12625;SDS011;6378;42.684;23.372;2022-12-18T01:05:29;15.10;;;9.23;;
12625;SDS011;6378;42.684;23.372;2022-12-18T01:07:55;12.53;;;8.33;;
12625;SDS011;6378;42.684;23.372;2022-12-18T01:10:21;12.80;;;9.10;;
12625;SDS011;6378;42.684;23.372;2022-12-18T01:12:47;12.03;;;8.30;;
12625;SDS011;6378;42.684;23.372;2022-12-18T01:15:13;12.50;;;8.90;;
12625;SDS011;6378;42.684;23.372;2022-12-18T01:17:39;14.40;;;9.50;;
12625;SDS011;6378;42.684;23.372;2022-12-18T01:20:05;13.60;;;9.13;;
12625;SDS011;6378;42.684;23.372;2022-12-18T01:22:31;13.90;;;9.70;;
12625;SDS011;6378;42.684;23.372;2022-12-18T01:25:00;14.40;;;9.57;;
12625;SDS011;6378;42.684;23.372;2022-12-18T01:27:25;11.40;;;8.87;;
12625;SDS011;6378;42.684;23.372;2022-12-18T01:29:51;14.60;;;9.90;;
12625;SDS011;6378;42.684;23.372;2022-12-18T01:32:16;15.27;;;10.07;;
12625;SDS011;6378;42.684;23.372;2022-12-18T01:34:41;15.20;;;9.70;;
12625;SDS011;6378;42.684;23.372;2022-12-18T01:37:07;13.87;;;9.40;;
12625;SDS011;6378;42.684;23.372;2022-12-18T01:39:33;14.17;;;9.63;;
12625;SDS011;6378;42.684;23.372;2022-12-18T01:41:59;13.80;;;9.43;;
12625;SDS011;6378;42.684;23.372;2022-12-18T01:49:58;13.90;;;10.13;;
12625;SDS011;6378;42.684;23.372;2022-12-18T01:52:28;17.60;;;10.23;;
12625;SDS011;6378;42.684;23.372;2022-12-18T01:54:55;15.30;;;10.57;;
12625;SDS011;6378;42.684;23.372;2022-12-18T01:57:21;16.57;;;10.40;;
12625;SDS011;6378;42.684;23.372;2022-12-18T01:59:49;15.27;;;9.97;;
12625;SDS011;6378;42.684;23.372;2022-12-18T02:02:18;15.37;;;9.90;;
12625;SDS011;6378;42.684;23.372;2022-12-18T02:04:45;14.67;;;9.17;;
12625;SDS011;6378;42.684;23.372;2022-12-18T02:07:35;15.20;;;10.37;;
12625;SDS011;6378;42.684;23.372;2022-12-18T02:18:40;13.63;;;9.50;;
12625;SDS011;6378;42.684;23.372;2022-12-18T02:24:01;12.77;;;8.47;;
12625;SDS011;6378;42.684;23.372;2022-12-18T02:26:34;12.13;;;8.37;;
12625;SDS011;6378;42.684;23.372;2022-12-18T02:29:26;11.93;;;7.70;;
12625;SDS011;6378;42.684;23.372;2022-12-18T02:31:54;13.73;;;9.17;;
12625;SDS011;6378;42.684;23.372;2022-12-18T02:34:27;13.07;;;8.83;;
12625;SDS011;6378;42.684;23.372;2022-12-18T02:36:55;12.70;;;8.67;;
12625;SDS011;6378;42.684;23.372;2022-12-18T02:39:23;13.43;;;8.53;;
12625;SDS011;6378;42.684;23.372;2022-12-18T02:41:51;11.60;;;7.83;;
12625;SDS011;6378;42.684;23.372;2022-12-18T02:44:17;12.87;;;8.70;;
12625;SDS011;6378;42.684;23.372;2022-12-18T02:46:43;11.80;;;8.20;;
12625;SDS011;6378;42.684;23.372;2022-12-18T02:49:31;14.70;;;9.13;;
12625;SDS011;6378;42.684;23.372;2022-12-18T03:00:48;13.40;;;8.67;;
12625;SDS011;6378;42.684;23.372;2022-12-18T03:03:24;14.07;;;9.30;;
12625;SDS011;6378;42.684;23.372;2022-12-18T03:06:10;13.77;;;9.43;;
12625;SDS011;6378;42.684;23.372;2022-12-18T03:08:58;12.77;;;7.83;;
12625;SDS011;6378;42.684;23.372;2022-12-18T03:11:28;13.50;;;9.03;;
12625;SDS011;6378;42.684;23.372;2022-12-18T03:14:16;11.60;;;8.50;;
12625;SDS011;6378;42.684;23.372;2022-12-18T03:16:43;14.83;;;9.20;;
12625;SDS011;6378;42.684;23.372;2022-12-18T03:19:11;12.47;;;9.43;;
12625;SDS011;6378;42.684;23.372;2022-12-18T03:21:42;13.53;;;8.17;;
12625;SDS011;6378;42.684;23.372;2022-12-18T03:24:10;12.83;;;9.27;;
12625;SDS011;6378;42.684;23.372;2022-12-18T03:26:36;14.77;;;10.03;;
12625;SDS011;6378;42.684;23.372;2022-12-18T03:29:10;13.30;;;9.03;;
12625;SDS011;6378;42.684;23.372;2022-12-18T03:31:42;12.10;;;8.43;;
12625;SDS011;6378;42.684;23.372;2022-12-18T03:34:19;15.80;;;9.70;;
12625;SDS011;6378;42.684;23.372;2022-12-18T03:36:48;12.50;;;8.63;;
12625;SDS011;6378;42.684;23.372;2022-12-18T03:39:13;12.93;;;9.13;;
12625;SDS011;6378;42.684;23.372;2022-12-18T03:44:25;13.53;;;9.77;;
12625;SDS011;6378;42.684;23.372;2022-12-18T03:49:41;14.37;;;9.30;;
12625;SDS011;6378;42.684;23.372;2022-12-18T03:52:26;14.17;;;9.83;;
12625;SDS011;6378;42.684;23.372;2022-12-18T03:54:56;14.90;;;9.53;;
12625;SDS011;6378;42.684;23.372;2022-12-18T03:57:26;14.00;;;9.10;;
12625;SDS011;6378;42.684;23.372;2022-12-18T03:59:56;11.40;;;8.30;;
12625;SDS011;6378;42.684;23.372;2022-12-18T04:02:25;14.03;;;9.67;;
12625;SDS011;6378;42.684;23.372;2022-12-18T04:04:55;13.33;;;9.20;;
12625;SDS011;6378;42.684;23.372;2022-12-18T04:07:24;15.00;;;9.37;;
12625;SDS011;6378;42.684;23.372;2022-12-18T04:09:50;15.83;;;10.07;;
12625;SDS011;6378;42.684;23.372;2022-12-18T04:12:21;13.97;;;8.93;;
12625;SDS011;6378;42.684;23.372;2022-12-18T04:14:50;13.30;;;9.03;;
12625;SDS011;6378;42.684;23.372;2022-12-18T04:17:16;13.87;;;9.20;;
12625;SDS011;6378;42.684;23.372;2022-12-18T04:19:41;14.97;;;8.67;;
12625;SDS011;6378;42.684;23.372;2022-12-18T04:22:08;13.47;;;9.43;;
12625;SDS011;6378;42.684;23.372;2022-12-18T04:24:35;13.77;;;9.30;;
12625;SDS011;6378;42.684;23.372;2022-12-18T04:27:00;15.37;;;10.27;;
12625;SDS011;6378;42.684;23.372;2022-12-18T04:29:26;16.03;;;11.40;;
12625;SDS011;6378;42.684;23.372;2022-12-18T04:31:51;16.33;;;10.37;;
12625;SDS011;6378;42.684;23.372;2022-12-18T04:34:17;15.40;;;9.63;;
12625;SDS011;6378;42.684;23.372;2022-12-18T04:36:42;16.00;;;10.10;;
12625;SDS011;6378;42.684;23.372;2022-12-18T04:39:07;15.97;;;10.27;;
12625;SDS011;6378;42.684;23.372;2022-12-18T04:41:33;15.53;;;10.10;;
12625;SDS011;6378;42.684;23.372;2022-12-18T04:43:58;16.00;;;10.37;;
12625;SDS011;6378;42.684;23.372;2022-12-18T04:46:24;16.77;;;10.20;;
12625;SDS011;6378;42.684;23.372;2022-12-18T04:48:49;17.90;;;10.90;;
12625;SDS011;6378;42.684;23.372;2022-12-18T04:51:14;18.17;;;10.23;;
12625;SDS011;6378;42.684;23.372;2022-12-18T04:53:40;20.97;;;11.63;;
12625;SDS011;6378;42.684;23.372;2022-12-18T04:56:12;19.50;;;11.30;;
12625;SDS011;6378;42.684;23.372;2022-12-18T04:58:40;18.00;;;10.93;;
12625;SDS011;6378;42.684;23.372;2022-12-18T05:01:07;18.77;;;11.00;;
12625;SDS011;6378;42.684;23.372;2022-12-18T05:03:33;16.87;;;10.73;;
12625;SDS011;6378;42.684;23.372;2022-12-18T05:05:59;16.53;;;10.33;;
12625;SDS011;6378;42.684;23.372;2022-12-18T05:08:24;18.63;;;11.43;;
12625;SDS011;6378;42.684;23.372;2022-12-18T05:10:57;16.60;;;11.60;;
12625;SDS011;6378;42.684;23.372;2022-12-18T05:13:31;18.80;;;11.43;;
12625;SDS011;6378;42.684;23.372;2022-12-18T05:15:56;18.40;;;11.30;;
12625;SDS011;6378;42.684;23.372;2022-12-18T05:18:23;19.87;;;11.97;;
12625;SDS011;6378;42.684;23.372;2022-12-18T05:20:49;18.93;;;12.13;;
12625;SDS011;6378;42.684;23.372;2022-12-18T05:23:15;23.13;;;13.37;;
12625;SDS011;6378;42.684;23.372;2022-12-18T05:25:41;21.30;;;12.23;;
12625;SDS011;6378;42.684;23.372;2022-12-18T05:28:06;20.57;;;11.93;;
12625;SDS011;6378;42.684;23.372;2022-12-18T05:30:31;19.13;;;12.33;;
12625;SDS011;6378;42.684;23.372;2022-12-18T05:32:57;20.63;;;11.90;;
12625;SDS011;6378;42.684;23.372;2022-12-18T05:35:22;20.53;;;12.40;;
12625;SDS011;6378;42.684;23.372;2022-12-18T05:37:48;22.50;;;13.30;;
12625;SDS011;6378;42.684;23.372;2022-12-18T05:40:13;22.87;;;13.27;;
12625;SDS011;6378;42.684;23.372;2022-12-18T05:42:39;20.93;;;12.67;;
12625;SDS011;6378;42.684;23.372;2022-12-18T05:45:04;20.30;;;12.93;;
12625;SDS011;6378;42.684;23.372;2022-12-18T05:47:31;20.93;;;13.43;;
12625;SDS011;6378;42.684;23.372;2022-12-18T05:49:56;21.57;;;12.93;;
12625;SDS011;6378;42.684;23.372;2022-12-18T05:52:22;16.80;;;11.23;;
12625;SDS011;6378;42.684;23.372;2022-12-18T05:54:47;20.50;;;12.20;;
12625;SDS011;6378;42.684;23.372;2022-12-18T05:57:16;22.77;;;12.57;;
12625;SDS011;6378;42.684;23.372;2022-12-18T05:59:41;20.10;;;12.07;;
12625;SDS011;6378;42.684;23.372;2022-12-18T06:02:06;23.30;;;12.13;;
12625;SDS011;6378;42.684;23.372;2022-12-18T06:04:32;21.03;;;12.60;;
12625;SDS011;6378;42.684;23.372;2022-12-18T06:06:58;19.43;;;12.40;;
12625;SDS011;6378;42.684;23.372;2022-12-18T06:09:23;19.47;;;12.93;;
12625;SDS011;6378;42.684;23.372;2022-12-18T06:11:49;20.17;;;12.37;;
12625;SDS011;6378;42.684;23.372;2022-12-18T06:14:16;21.30;;;12.60;;
12625;SDS011;6378;42.684;23.372;2022-12-18T06:16:43;21.07;;;12.80;;
12625;SDS011;6378;42.684;23.372;2022-12-18T06:19:14;24.17;;;13.00;;
12625;SDS011;6378;42.684;23.372;2022-12-18T06:21:40;18.73;;;11.57;;
12625;SDS011;6378;42.684;23.372;2022-12-18T06:24:06;21.87;;;12.57;;
12625;SDS011;6378;42.684;23.372;2022-12-18T06:26:32;21.57;;;13.13;;
12625;SDS011;6378;42.684;23.372;2022-12-18T06:28:57;19.63;;;13.00;;
12625;SDS011;6378;42.684;23.372;2022-12-18T06:31:23;23.20;;;13.40;;
12625;SDS011;6378;42.684;23.372;2022-12-18T06:33:49;20.10;;;12.80;;
12625;SDS011;6378;42.684;23.372;2022-12-18T06:36:14;20.10;;;11.83;;
12625;SDS011;6378;42.684;23.372;2022-12-18T06:38:42;21.90;;;12.60;;
12625;SDS011;6378;42.684;23.372;2022-12-18T06:41:15;20.40;;;13.17;;
12625;SDS011;6378;42.684;23.372;2022-12-18T06:43:43;24.00;;;12.83;;
12625;SDS011;6378;42.684;23.372;2022-12-18T06:46:09;21.67;;;12.43;;
12625;SDS011;6378;42.684;23.372;2022-12-18T06:48:35;21.07;;;12.77;;
12625;SDS011;6378;42.684;23.372;2022-12-18T06:51:00;21.30;;;12.70;;
12625;SDS011;6378;42.684;23.372;2022-12-18T06:53:27;19.60;;;12.07;;
12625;SDS011;6378;42.684;23.372;2022-12-18T06:56:01;22.10;;;13.23;;
12625;SDS011;6378;42.684;23.372;2022-12-18T06:58:30;20.00;;;12.37;;
12625;SDS011;6378;42.684;23.372;2022-12-18T07:01:02;22.10;;;13.47;;
12625;SDS011;6378;42.684;23.372;2022-12-18T07:03:29;20.77;;;12.33;;
12625;SDS011;6378;42.684;23.372;2022-12-18T07:05:55;24.20;;;13.50;;
12625;SDS011;6378;42.684;23.372;2022-12-18T07:08:20;20.07;;;12.40;;
12625;SDS011;6378;42.684;23.372;2022-12-18T07:10:46;20.00;;;12.30;;
12625;SDS011;6378;42.684;23.372;2022-12-18T07:13:13;19.53;;;11.63;;
12625;SDS011;6378;42.684;23.372;2022-12-18T07:15:39;19.40;;;11.37;;
12625;SDS011;6378;42.684;23.372;2022-12-18T07:18:05;23.07;;;13.23;;
12625;SDS011;6378;42.684;23.372;2022-12-18T07:20:30;22.63;;;12.17;;
12625;SDS011;6378;42.684;23.372;2022-12-18T07:22:55;22.57;;;14.37;;
12625;SDS011;6378;42.684;23.372;2022-12-18T07:25:21;22.03;;;12.77;;
12625;SDS011;6378;42.684;23.372;2022-12-18T07:27:46;18.53;;;11.63;;
12625;SDS011;6378;42.684;23.372;2022-12-18T07:30:12;25.33;;;13.67;;
12625;SDS011;6378;42.684;23.372;2022-12-18T07:32:37;23.77;;;14.03;;
12625;SDS011;6378;42.684;23.372;2022-12-18T07:35:02;21.27;;;13.73;;
12625;SDS011;6378;42.684;23.372;2022-12-18T07:37:28;25.30;;;14.63;;
12625;SDS011;6378;42.684;23.372;2022-12-18T07:39:54;28.07;;;15.67;;
12625;SDS011;6378;42.684;23.372;2022-12-18T07:42:19;24.67;;;13.73;;
12625;SDS011;6378;42.684;23.372;2022-12-18T07:44:57;25.80;;;13.93;;
12625;SDS011;6378;42.684;23.372;2022-12-18T07:47:26;26.77;;;15.13;;
12625;SDS011;6378;42.684;23.372;2022-12-18T07:49:52;26.53;;;15.03;;
12625;SDS011;6378;42.684;23.372;2022-12-18T07:52:18;26.77;;;14.30;;
12625;SDS011;6378;42.684;23.372;2022-12-18T07:54:44;26.33;;;15.13;;
12625;SDS011;6378;42.684;23.372;2022-12-18T07:57:09;30.63;;;16.40;;
12625;SDS011;6378;42.684;23.372;2022-12-18T07:59:35;24.63;;;14.93;;
12625;SDS011;6378;42.684;23.372;2022-12-18T08:02:00;27.10;;;15.67;;
12625;SDS011;6378;42.684;23.372;2022-12-18T08:04:26;26.40;;;15.53;;
12625;SDS011;6378;42.684;23.372;2022-12-18T08:06:52;29.47;;;15.50;;
12625;SDS011;6378;42.684;23.372;2022-12-18T08:09:18;24.20;;;15.50;;
12625;SDS011;6378;42.684;23.372;2022-12-18T08:11:43;28.43;;;17.83;;
12625;SDS011;6378;42.684;23.372;2022-12-18T08:14:09;27.03;;;16.70;;
12625;SDS011;6378;42.684;23.372;2022-12-18T08:16:35;30.07;;;16.67;;
12625;SDS011;6378;42.684;23.372;2022-12-18T08:19:00;29.50;;;17.13;;
12625;SDS011;6378;42.684;23.372;2022-12-18T08:21:27;27.73;;;15.50;;
12625;SDS011;6378;42.684;23.372;2022-12-18T08:23:54;26.70;;;14.87;;
12625;SDS011;6378;42.684;23.372;2022-12-18T08:26:21;29.73;;;15.80;;
12625;SDS011;6378;42.684;23.372;2022-12-18T08:28:48;29.20;;;16.33;;
12625;SDS011;6378;42.684;23.372;2022-12-18T08:31:14;27.60;;;16.47;;
12625;SDS011;6378;42.684;23.372;2022-12-18T08:33:40;29.93;;;16.60;;
12625;SDS011;6378;42.684;23.372;2022-12-18T08:36:06;26.60;;;15.60;;
12625;SDS011;6378;42.684;23.372;2022-12-18T08:38:33;28.47;;;16.07;;
12625;SDS011;6378;42.684;23.372;2022-12-18T08:41:03;27.70;;;16.27;;
12625;SDS011;6378;42.684;23.372;2022-12-18T08:43:30;30.10;;;16.43;;
12625;SDS011;6378;42.684;23.372;2022-12-18T08:46:14;26.20;;;14.53;;
12625;SDS011;6378;42.684;23.372;2022-12-18T08:48:42;27.30;;;14.87;;
12625;SDS011;6378;42.684;23.372;2022-12-18T08:51:08;29.63;;;16.20;;
12625;SDS011;6378;42.684;23.372;2022-12-18T08:53:37;28.20;;;16.53;;
12625;SDS011;6378;42.684;23.372;2022-12-18T08:56:03;27.63;;;16.07;;
12625;SDS011;6378;42.684;23.372;2022-12-18T08:58:29;25.70;;;15.77;;
12625;SDS011;6378;42.684;23.372;2022-12-18T09:00:59;28.77;;;16.13;;
12625;SDS011;6378;42.684;23.372;2022-12-18T09:03:28;26.20;;;14.17;;
12625;SDS011;6378;42.684;23.372;2022-12-18T09:05:54;25.57;;;15.23;;
12625;SDS011;6378;42.684;23.372;2022-12-18T09:08:19;24.77;;;14.63;;
12625;SDS011;6378;42.684;23.372;2022-12-18T09:10:45;23.80;;;14.87;;
12625;SDS011;6378;42.684;23.372;2022-12-18T09:13:12;27.17;;;14.07;;
12625;SDS011;6378;42.684;23.372;2022-12-18T09:15:55;22.40;;;14.10;;
12625;SDS011;6378;42.684;23.372;2022-12-18T09:18:21;24.73;;;14.23;;
12625;SDS011;6378;42.684;23.372;2022-12-18T09:20:48;21.80;;;13.67;;
12625;SDS011;6378;42.684;23.372;2022-12-18T09:23:15;21.53;;;13.27;;
12625;SDS011;6378;42.684;23.372;2022-12-18T09:25:40;23.03;;;13.73;;
12625;SDS011;6378;42.684;23.372;2022-12-18T09:28:09;22.57;;;13.80;;
12625;SDS011;6378;42.684;23.372;2022-12-18T09:30:40;23.33;;;13.60;;
12625;SDS011;6378;42.684;23.372;2022-12-18T09:33:08;24.57;;;13.73;;
12625;SDS011;6378;42.684;23.372;2022-12-18T09:35:40;22.57;;;12.90;;
12625;SDS011;6378;42.684;23.372;2022-12-18T09:38:07;24.20;;;12.93;;
12625;SDS011;6378;42.684;23.372;2022-12-18T09:40:39;24.47;;;13.67;;
12625;SDS011;6378;42.684;23.372;2022-12-18T09:43:20;26.03;;;13.47;;
12625;SDS011;6378;42.684;23.372;2022-12-18T09:45:53;23.13;;;12.97;;
12625;SDS011;6378;42.684;23.372;2022-12-18T09:48:31;24.70;;;13.67;;
12625;SDS011;6378;42.684;23.372;2022-12-18T09:51:06;21.03;;;12.27;;
12625;SDS011;6378;42.684;23.372;2022-12-18T09:53:45;23.77;;;12.27;;
12625;SDS011;6378;42.684;23.372;2022-12-18T09:56:16;22.10;;;11.93;;
12625;SDS011;6378;42.684;23.372;2022-12-18T09:58:49;21.30;;;12.17;;
12625;SDS011;6378;42.684;23.372;2022-12-18T10:01:22;21.70;;;12.70;;
12625;SDS011;6378;42.684;23.372;2022-12-18T10:03:48;20.60;;;11.70;;
12625;SDS011;6378;42.684;23.372;2022-12-18T10:06:18;19.40;;;11.73;;
12625;SDS011;6378;42.684;23.372;2022-12-18T10:08:52;22.30;;;12.97;;
12625;SDS011;6378;42.684;23.372;2022-12-18T10:16:36;20.70;;;12.30;;
12625;SDS011;6378;42.684;23.372;2022-12-18T10:19:14;21.70;;;12.70;;
12625;SDS011;6378;42.684;23.372;2022-12-18T10:21:55;22.47;;;12.40;;
12625;SDS011;6378;42.684;23.372;2022-12-18T10:27:16;20.90;;;12.70;;
12625;SDS011;6378;42.684;23.372;2022-12-18T10:29:44;23.30;;;13.60;;
12625;SDS011;6378;42.684;23.372;2022-12-18T10:32:17;22.63;;;12.67;;
12625;SDS011;6378;42.684;23.372;2022-12-18T10:34:48;19.73;;;12.23;;
12625;SDS011;6378;42.684;23.372;2022-12-18T10:37:16;22.60;;;12.43;;
12625;SDS011;6378;42.684;23.372;2022-12-18T10:39:43;20.20;;;11.73;;
12625;SDS011;6378;42.684;23.372;2022-12-18T10:42:11;22.63;;;13.60;;
12625;SDS011;6378;42.684;23.372;2022-12-18T10:44:42;22.80;;;13.37;;
12625;SDS011;6378;42.684;23.372;2022-12-18T10:47:10;20.43;;;12.30;;
12625;SDS011;6378;42.684;23.372;2022-12-18T10:49:41;22.97;;;12.70;;
12625;SDS011;6378;42.684;23.372;2022-12-18T10:52:23;20.43;;;12.03;;
12625;SDS011;6378;42.684;23.372;2022-12-18T10:54:51;21.63;;;12.97;;
12625;SDS011;6378;42.684;23.372;2022-12-18T10:59:55;23.73;;;14.03;;
12625;SDS011;6378;42.684;23.372;2022-12-18T11:02:55;22.77;;;13.87;;
12625;SDS011;6378;42.684;23.372;2022-12-18T11:05:23;22.90;;;12.93;;
12625;SDS011;6378;42.684;23.372;2022-12-18T11:07:52;23.27;;;13.87;;
12625;SDS011;6378;42.684;23.372;2022-12-18T11:10:20;21.23;;;13.60;;
12625;SDS011;6378;42.684;23.372;2022-12-18T11:12:47;25.80;;;14.77;;
12625;SDS011;6378;42.684;23.372;2022-12-18T11:15:18;21.87;;;14.37;;
12625;SDS011;6378;42.684;23.372;2022-12-18T11:17:49;22.37;;;13.27;;
12625;SDS011;6378;42.684;23.372;2022-12-18T11:20:32;22.03;;;12.70;;
12625;SDS011;6378;42.684;23.372;2022-12-18T11:23:01;23.17;;;13.50;;
12625;SDS011;6378;42.684;23.372;2022-12-18T11:25:29;21.53;;;13.13;;
12625;SDS011;6378;42.684;23.372;2022-12-18T11:30:27;22.93;;;13.20;;
12625;SDS011;6378;42.684;23.372;2022-12-18T11:32:54;22.43;;;14.10;;
12625;SDS011;6378;42.684;23.372;2022-12-18T11:44:16;24.40;;;14.47;;
12625;SDS011;6378;42.684;23.372;2022-12-18T11:46:51;22.37;;;13.23;;
12625;SDS011;6378;42.684;23.372;2022-12-18T11:49:24;22.40;;;14.17;;
12625;SDS011;6378;42.684;23.372;2022-12-18T11:54:29;24.13;;;13.43;;
12625;SDS011;6378;42.684;23.372;2022-12-18T11:56:56;23.97;;;13.77;;
12625;SDS011;6378;42.684;23.372;2022-12-18T12:02:36;23.77;;;14.23;;
12625;SDS011;6378;42.684;23.372;2022-12-18T12:29:50;23.67;;;14.20;;
12625;SDS011;6378;42.684;23.372;2022-12-18T12:33:02;24.40;;;14.60;;
12625;SDS011;6378;42.684;23.372;2022-12-18T12:38:47;23.50;;;13.67;;
12625;SDS011;6378;42.684;23.372;2022-12-18T12:41:25;22.43;;;13.30;;
12625;SDS011;6378;42.684;23.372;2022-12-18T12:44:15;21.93;;;13.53;;
12625;SDS011;6378;42.684;23.372;2022-12-18T12:46:47;22.53;;;13.57;;
12625;SDS011;6378;42.684;23.372;2022-12-18T12:49:22;23.47;;;14.57;;
12625;SDS011;6378;42.684;23.372;2022-12-18T12:52:15;22.37;;;13.30;;
12625;SDS011;6378;42.684;23.372;2022-12-18T12:54:57;23.17;;;13.30;;
12625;SDS011;6378;42.684;23.372;2022-12-18T13:00:17;25.20;;;13.97;;
12625;SDS011;6378;42.684;23.372;2022-12-18T13:10:25;40.80;;;22.97;;
12625;SDS011;6378;42.684;23.372;2022-12-18T13:13:03;21.67;;;13.90;;
12625;SDS011;6378;42.684;23.372;2022-12-18T13:15:43;23.93;;;14.87;;
12625;SDS011;6378;42.684;23.372;2022-12-18T13:20:42;26.10;;;14.93;;
12625;SDS011;6378;42.684;23.372;2022-12-18T13:23:34;23.73;;;12.90;;
12625;SDS011;6378;42.684;23.372;2022-12-18T13:34:18;22.63;;;13.57;;
12625;SDS011;6378;42.684;23.372;2022-12-18T13:36:49;22.00;;;12.90;;
12625;SDS011;6378;42.684;23.372;2022-12-18T13:41:43;22.27;;;13.43;;
12625;SDS011;6378;42.684;23.372;2022-12-18T13:46:58;22.57;;;13.57;;
12625;SDS011;6378;42.684;23.372;2022-12-18T13:52:16;24.20;;;13.37;;
12625;SDS011;6378;42.684;23.372;2022-12-18T13:54:45;25.60;;;13.83;;
12625;SDS011;6378;42.684;23.372;2022-12-18T13:57:27;21.57;;;12.83;;
12625;SDS011;6378;42.684;23.372;2022-12-18T13:59:59;26.43;;;14.20;;
12625;SDS011;6378;42.684;23.372;2022-12-18T14:02:58;25.50;;;14.87;;
12625;SDS011;6378;42.684;23.372;2022-12-18T14:05:36;26.63;;;14.27;;
12625;SDS011;6378;42.684;23.372;2022-12-18T14:08:06;21.80;;;13.70;;
12625;SDS011;6378;42.684;23.372;2022-12-18T14:10:39;19.63;;;12.67;;
12625;SDS011;6378;42.684;23.372;2022-12-18T14:13:10;23.87;;;13.03;;
12625;SDS011;6378;42.684;23.372;2022-12-18T14:15:43;22.60;;;13.40;;
12625;SDS011;6378;42.684;23.372;2022-12-18T14:20:47;23.07;;;12.40;;
12625;SDS011;6378;42.684;23.372;2022-12-18T14:23:32;21.50;;;12.37;;
12625;SDS011;6378;42.684;23.372;2022-12-18T14:26:01;21.53;;;12.63;;
12625;SDS011;6378;42.684;23.372;2022-12-18T14:28:29;20.93;;;12.43;;
12625;SDS011;6378;42.684;23.372;2022-12-18T14:30:54;21.00;;;12.40;;
12625;SDS011;6378;42.684;23.372;2022-12-18T14:33:24;21.20;;;12.87;;
12625;SDS011;6378;42.684;23.372;2022-12-18T14:35:53;18.17;;;12.63;;
12625;SDS011;6378;42.684;23.372;2022-12-18T14:40:52;21.00;;;12.40;;
12625;SDS011;6378;42.684;23.372;2022-12-18T14:43:24;23.77;;;13.60;;
12625;SDS011;6378;42.684;23.372;2022-12-18T14:45:51;23.03;;;13.60;;
12625;SDS011;6378;42.684;23.372;2022-12-18T14:48:18;22.67;;;12.87;;
12625;SDS011;6378;42.684;23.372;2022-12-18T14:51:06;22.87;;;13.17;;
12625;SDS011;6378;42.684;23.372;2022-12-18T14:53:36;22.57;;;12.33;;
12625;SDS011;6378;42.684;23.372;2022-12-18T14:56:17;21.57;;;13.37;;
12625;SDS011;6378;42.684;23.372;2022-12-18T14:58:58;22.30;;;13.27;;
12625;SDS011;6378;42.684;23.372;2022-12-18T15:01:36;19.50;;;11.80;;
12625;SDS011;6378;42.684;23.372;2022-12-18T15:04:04;22.10;;;12.83;;
12625;SDS011;6378;42.684;23.372;2022-12-18T15:06:48;23.40;;;12.17;;
12625;SDS011;6378;42.684;23.372;2022-12-18T15:09:23;19.33;;;11.73;;
12625;SDS011;6378;42.684;23.372;2022-12-18T15:11:54;19.23;;;11.27;;
12625;SDS011;6378;42.684;23.372;2022-12-18T15:17:03;21.23;;;11.70;;
12625;SDS011;6378;42.684;23.372;2022-12-18T15:19:39;19.93;;;12.63;;
12625;SDS011;6378;42.684;23.372;2022-12-18T15:24:53;23.53;;;12.03;;
12625;SDS011;6378;42.684;23.372;2022-12-18T15:30:01;20.37;;;11.50;;
12625;SDS011;6378;42.684;23.372;2022-12-18T15:32:33;22.33;;;13.70;;
12625;SDS011;6378;42.684;23.372;2022-12-18T15:37:38;18.20;;;9.80;;
12625;SDS011;6378;42.684;23.372;2022-12-18T15:40:04;20.50;;;12.53;;
12625;SDS011;6378;42.684;23.372;2022-12-18T15:42:30;20.17;;;12.13;;
12625;SDS011;6378;42.684;23.372;2022-12-18T15:45:14;21.80;;;12.57;;
12625;SDS011;6378;42.684;23.372;2022-12-18T15:47:40;23.93;;;13.00;;
12625;SDS011;6378;42.684;23.372;2022-12-18T15:50:08;20.63;;;12.97;;
12625;SDS011;6378;42.684;23.372;2022-12-18T15:52:55;26.67;;;13.93;;
12625;SDS011;6378;42.684;23.372;2022-12-18T15:55:21;20.67;;;12.53;;
12625;SDS011;6378;42.684;23.372;2022-12-18T15:58:07;23.00;;;12.97;;
12625;SDS011;6378;42.684;23.372;2022-12-18T16:00:34;25.10;;;13.00;;
12625;SDS011;6378;42.684;23.372;2022-12-18T16:03:01;23.07;;;13.17;;
12625;SDS011;6378;42.684;23.372;2022-12-18T16:05:27;22.70;;;12.97;;
12625;SDS011;6378;42.684;23.372;2022-12-18T16:07:53;22.87;;;13.30;;
12625;SDS011;6378;42.684;23.372;2022-12-18T16:10:19;26.03;;;14.03;;
12625;SDS011;6378;42.684;23.372;2022-12-18T16:12:45;21.13;;;13.00;;
12625;SDS011;6378;42.684;23.372;2022-12-18T16:15:14;23.37;;;13.03;;
12625;SDS011;6378;42.684;23.372;2022-12-18T16:17:41;21.60;;;13.40;;
12625;SDS011;6378;42.684;23.372;2022-12-18T16:20:14;24.23;;;13.40;;
12625;SDS011;6378;42.684;23.372;2022-12-18T16:22:42;24.97;;;13.30;;
12625;SDS011;6378;42.684;23.372;2022-12-18T16:25:18;22.37;;;13.80;;
12625;SDS011;6378;42.684;23.372;2022-12-18T16:27:46;25.07;;;13.67;;
12625;SDS011;6378;42.684;23.372;2022-12-18T16:30:21;21.30;;;12.87;;
12625;SDS011;6378;42.684;23.372;2022-12-18T16:32:49;23.47;;;13.87;;
12625;SDS011;6378;42.684;23.372;2022-12-18T16:35:15;25.57;;;13.73;;
12625;SDS011;6378;42.684;23.372;2022-12-18T16:37:41;22.43;;;13.20;;
12625;SDS011;6378;42.684;23.372;2022-12-18T16:40:09;22.83;;;13.97;;
12625;SDS011;6378;42.684;23.372;2022-12-18T16:42:37;27.23;;;14.57;;
12625;SDS011;6378;42.684;23.372;2022-12-18T16:45:04;51.20;;;24.73;;
12625;SDS011;6378;42.684;23.372;2022-12-18T16:47:30;26.40;;;14.70;;
12625;SDS011;6378;42.684;23.372;2022-12-18T16:49:56;24.57;;;14.97;;
12625;SDS011;6378;42.684;23.372;2022-12-18T16:52:21;25.90;;;13.87;;